Impacts METAR Board INFO
IDs:

KIAD - Washington/Dulles In, VA, US

Updated at: 0100 UTC 19 Nov 2017
Potential Impact None Slight Moderate High
Time18/13Z 18/14Z 18/15Z 18/16Z 18/17Z 18/18Z 18/19Z 18/20Z 18/21Z 18/22Z 18/23Z 19/00Z 19/01Z
VIS10 10 10 10 10 10 10 10 10 10 10 10 10
CIG130 130 110 110 110 110 90 110 90 85 85 100 150
CoverBKNBKNBKNOVCBKNBKNOVCOVCOVCOVCOVCOVCOVC
FltCatVFRVFRVFRVFRVFRVFRVFRVFRVFRVFRVFRVFRVFR
WX--------------------------
WDir180190200190190190190180170150150180190
WSpd10 11 10 13 12 15 17 9 7 7 7 11 18
WGst-- -- 19 18 -- 23 22 -- -- -- -- -- 27
Raw hourly METARs
KIAD 181252Z 18010KT 10SM BKN130 BKN200 06/01 A2987 RMK AO2 SLP118 T00560006
KIAD 181352Z 19011KT 10SM BKN130 BKN200 07/02 A2985 RMK AO2 SLP111 T00720017
KIAD 181452Z 20010G19KT 10SM BKN110 BKN200 08/02 A2983 RMK AO2 SLP104 T00780017 58018
KIAD 181552Z 19013G18KT 10SM FEW095 BKN110 OVC200 10/03 A2979 RMK AO2 SLP088 T01000028
KIAD 181652Z 19012KT 10SM SCT090 BKN110 BKN200 13/03 A2973 RMK AO2 PRESFR SLP068 T01280033
KIAD 181752Z 19015G23KT 10SM SCT090 BKN110 BKN200 14/03 A2969 RMK AO2 SLP053 T01390033 10139 20044 56049
KIAD 181852Z 19017G22KT 10SM BKN090 BKN120 OVC200 14/03 A2966 RMK AO2 SLP045 T01390033
KIAD 181952Z 18009KT 10SM OVC110 13/05 A2963 RMK AO2 RAB27E52 SLP034 P0000 T01330050 $
KIAD 182052Z 17007KT 10SM BKN090 OVC200 13/04 A2961 RMK AO2 RAB28E41 SLP026 P0000 60000 T01330044 57027 $
KIAD 182152Z 15007KT 10SM BKN085 OVC110 13/04 A2958 RMK AO2 SLP017 T01330044 $
KIAD 182252Z 15007KT 10SM BKN085 OVC120 14/05 A2956 RMK AO2 SLP011 T01390050 $
KIAD 182352Z 18011KT 10SM BKN100 OVC150 15/06 A2953 RMK AO2 SLP998 60000 T01500061 10150 20128 58026 $
KIAD 190052Z 19018G27KT 10SM SCT100 OVC150 16/07 A2950 RMK AO2 PK WND 18027/0047 SLP988 T01560072 $